createdAt,value
2023-05-02T00:00:55.287Z,7.20
2023-05-02T00:01:55.394Z,6.90
2023-05-02T00:02:55.459Z,8.30
2023-05-02T00:03:55.442Z,4.70
2023-05-02T00:04:55.238Z,6.10
2023-05-02T00:05:55.237Z,5.80
2023-05-02T00:06:55.335Z,5.50
2023-05-02T00:07:55.205Z,5.90
2023-05-02T00:08:55.202Z,5.90
2023-05-02T00:09:55.190Z,5.60
2023-05-02T00:10:55.188Z,6.40
2023-05-02T00:11:55.199Z,8.10
2023-05-02T00:12:55.159Z,7.00
2023-05-02T00:13:55.153Z,9.30
2023-05-02T00:14:55.126Z,4.80
2023-05-02T00:15:55.132Z,6.20
2023-05-02T00:16:55.216Z,6.70
2023-05-02T00:17:55.133Z,4.60
2023-05-02T00:18:55.095Z,6.40
2023-05-02T00:19:55.087Z,6.40
2023-05-02T00:20:55.068Z,6.40
2023-05-02T00:21:55.077Z,7.80
2023-05-02T00:22:55.053Z,5.10
2023-05-02T00:23:55.040Z,5.90
2023-05-02T00:24:55.016Z,6.60
2023-05-02T00:25:55.020Z,7.40
2023-05-02T00:26:54.990Z,9.10
2023-05-02T00:27:55.027Z,9.00
2023-05-02T00:28:55.000Z,7.90
2023-05-02T00:29:54.997Z,6.70
2023-05-02T00:30:54.993Z,6.70
2023-05-02T00:31:54.950Z,8.50
2023-05-02T00:32:55.013Z,7.50
2023-05-02T00:33:54.929Z,6.50
2023-05-02T00:34:54.920Z,6.40
2023-05-02T00:35:54.924Z,7.90
2023-05-02T00:36:54.894Z,7.00
2023-05-02T00:37:54.894Z,7.40
2023-05-02T00:38:54.856Z,6.30
2023-05-02T00:39:54.867Z,8.80
2023-05-02T00:40:54.838Z,6.90
2023-05-02T00:41:54.829Z,8.40
2023-05-02T00:42:54.825Z,6.80
2023-05-02T00:43:54.839Z,10.20
2023-05-02T00:44:54.815Z,8.10
2023-05-02T00:45:54.830Z,7.70
2023-05-02T00:46:54.894Z,8.10
2023-05-02T00:47:54.788Z,8.20
2023-05-02T00:48:54.774Z,9.30
2023-05-02T00:49:54.746Z,7.80
2023-05-02T00:50:54.721Z,7.30
2023-05-02T00:51:54.710Z,7.10
2023-05-02T00:52:54.705Z,8.00
2023-05-02T00:53:54.706Z,8.60
2023-05-02T00:54:54.707Z,8.00
2023-05-02T00:55:54.665Z,7.50
2023-05-02T00:56:54.664Z,8.90
2023-05-02T00:57:54.658Z,8.10
2023-05-02T00:58:54.639Z,8.80
2023-05-02T00:59:54.658Z,9.30
2023-05-02T01:00:54.623Z,8.50
2023-05-02T01:01:54.681Z,7.20
2023-05-02T01:02:54.686Z,7.30
2023-05-02T01:03:54.734Z,8.40
2023-05-02T01:04:54.565Z,8.70
2023-05-02T01:05:54.553Z,7.40
2023-05-02T01:06:54.571Z,7.70
2023-05-02T01:07:54.561Z,8.30
2023-05-02T01:08:54.531Z,8.20
2023-05-02T01:09:54.518Z,7.40
2023-05-02T01:10:54.511Z,8.10
2023-05-02T01:11:54.489Z,7.20
2023-05-02T01:12:54.480Z,8.90
2023-05-02T01:13:54.480Z,7.70
2023-05-02T01:14:54.468Z,9.10
2023-05-02T01:15:54.619Z,7.70
2023-05-02T01:16:54.447Z,8.00
2023-05-02T01:17:54.505Z,8.00
2023-05-02T01:18:54.419Z,8.90
2023-05-02T01:19:54.420Z,9.60
2023-05-02T01:20:54.387Z,8.60
2023-05-02T01:21:54.382Z,8.00
2023-05-02T01:22:54.373Z,7.80
2023-05-02T01:23:54.356Z,7.60
2023-05-02T01:24:54.346Z,7.50
2023-05-02T01:25:54.335Z,10.80
2023-05-02T01:26:54.338Z,7.40
2023-05-02T01:27:54.324Z,8.60
2023-05-02T01:28:54.310Z,7.40
2023-05-02T01:29:54.315Z,9.60
2023-05-02T01:30:54.275Z,8.50
2023-05-02T01:31:54.334Z,9.00
2023-05-02T01:32:54.328Z,9.90
2023-05-02T01:33:54.238Z,8.70
2023-05-02T01:34:54.244Z,9.20
2023-05-02T01:35:54.241Z,8.10
2023-05-02T01:36:54.228Z,9.00
2023-05-02T01:37:54.201Z,9.40
2023-05-02T01:38:54.198Z,12.00
2023-05-02T01:39:54.194Z,11.90
2023-05-02T01:40:54.182Z,12.60
2023-05-02T01:41:54.179Z,12.90
2023-05-02T01:42:54.144Z,16.10
2023-05-02T01:43:54.150Z,16.60
2023-05-02T01:44:54.167Z,13.90
2023-05-02T01:45:54.120Z,16.80
2023-05-02T01:46:54.183Z,15.10
2023-05-02T01:47:54.200Z,19.10
2023-05-02T01:48:54.079Z,22.90
2023-05-02T01:49:54.085Z,21.60
2023-05-02T01:50:54.065Z,20.00
2023-05-02T01:51:54.066Z,22.60
2023-05-02T01:52:54.056Z,22.30
2023-05-02T01:53:54.040Z,25.60
2023-05-02T01:54:54.014Z,21.20
2023-05-02T01:55:54.014Z,24.80
2023-05-02T01:56:54.076Z,21.10
2023-05-02T01:57:53.989Z,24.40
2023-05-02T01:58:53.990Z,22.60
2023-05-02T01:59:53.972Z,23.30
2023-05-02T02:00:53.980Z,25.30
2023-05-02T02:01:53.942Z,22.30
2023-05-02T02:02:53.966Z,22.70
2023-05-02T02:03:54.020Z,23.50
2023-05-02T02:04:53.924Z,22.10
2023-05-02T02:05:53.902Z,23.90
2023-05-02T02:06:53.997Z,22.60
2023-05-02T02:07:53.883Z,22.80
2023-05-02T02:08:53.875Z,22.90
2023-05-02T02:09:53.853Z,23.10
2023-05-02T02:10:53.856Z,24.50
2023-05-02T02:11:53.851Z,23.30
2023-05-02T02:12:53.830Z,23.60
2023-05-02T02:13:53.807Z,26.40
2023-05-02T02:14:53.806Z,27.10
2023-05-02T02:15:53.798Z,23.30
2023-05-02T02:16:53.849Z,25.30
2023-05-02T02:17:53.844Z,24.60
2023-05-02T02:18:53.756Z,24.40
2023-05-02T02:19:53.773Z,29.50
2023-05-02T02:20:53.722Z,25.10
2023-05-02T02:21:53.747Z,25.50
2023-05-02T02:22:53.718Z,29.70
2023-05-02T02:23:53.704Z,27.90
2023-05-02T02:24:54.508Z,26.60
2023-05-02T02:25:53.679Z,23.50
2023-05-02T02:26:53.672Z,25.10
2023-05-02T02:27:53.666Z,27.70
2023-05-02T02:28:53.640Z,23.80
2023-05-02T02:29:53.637Z,24.60
2023-05-02T02:30:53.659Z,24.90
2023-05-02T02:31:53.610Z,27.40
2023-05-02T02:32:53.644Z,29.80
2023-05-02T02:33:53.586Z,27.00
2023-05-02T02:34:53.580Z,25.50
2023-05-02T02:35:53.592Z,28.50
2023-05-02T02:36:53.562Z,23.70
2023-05-02T02:37:53.547Z,24.10
2023-05-02T02:38:53.527Z,30.10
2023-05-02T02:39:53.522Z,27.10
2023-05-02T02:40:53.524Z,26.40
2023-05-02T02:41:53.482Z,26.70
2023-05-02T02:42:53.475Z,32.60
2023-05-02T02:43:53.470Z,27.00
2023-05-02T02:44:53.469Z,32.80
2023-05-02T02:45:53.486Z,41.40
2023-05-02T02:46:53.443Z,36.00
2023-05-02T02:47:53.500Z,41.50
2023-05-02T02:48:53.408Z,40.90
2023-05-02T02:49:53.397Z,36.30
2023-05-02T02:50:53.386Z,36.70
2023-05-02T02:51:53.416Z,40.80
2023-05-02T02:52:53.382Z,36.30
2023-05-02T02:53:53.357Z,35.60
2023-05-02T02:54:53.335Z,35.40
2023-05-02T02:55:53.345Z,38.10
2023-05-02T02:56:53.333Z,36.40
2023-05-02T02:57:53.327Z,39.50
2023-05-02T02:58:53.309Z,34.10
2023-05-02T02:59:53.314Z,39.20
2023-05-02T03:00:53.280Z,34.60
2023-05-02T03:01:53.321Z,36.30
2023-05-02T03:02:53.306Z,37.00
2023-05-02T03:03:53.298Z,32.20
2023-05-02T03:04:53.245Z,29.50
2023-05-02T03:05:53.240Z,31.70
2023-05-02T03:06:53.303Z,33.30
2023-05-02T03:07:53.231Z,36.90
2023-05-02T03:08:53.186Z,34.40
2023-05-02T03:09:53.173Z,39.70
2023-05-02T03:10:53.181Z,32.90
2023-05-02T03:11:53.168Z,33.30
2023-05-02T03:12:53.134Z,31.40
2023-05-02T03:13:53.156Z,31.70
2023-05-02T03:14:53.123Z,30.40
2023-05-02T03:15:53.137Z,29.60
2023-05-02T03:16:53.103Z,28.70
2023-05-02T03:17:53.131Z,29.70
2023-05-02T03:18:53.070Z,28.30
2023-05-02T03:19:53.075Z,29.40
2023-05-02T03:20:53.064Z,33.40
2023-05-02T03:21:53.061Z,31.30
2023-05-02T03:22:53.029Z,31.50
2023-05-02T03:23:53.052Z,27.60
2023-05-02T03:24:53.015Z,28.40
2023-05-02T03:25:53.020Z,27.10
2023-05-02T03:26:52.998Z,27.20
2023-05-02T03:27:52.970Z,28.70
2023-05-02T03:28:52.973Z,26.10
2023-05-02T03:29:52.966Z,26.90
2023-05-02T03:30:52.949Z,28.20
2023-05-02T03:31:53.028Z,28.80
2023-05-02T03:32:52.955Z,28.80
2023-05-02T03:33:52.909Z,25.40
2023-05-02T03:34:52.904Z,27.40
2023-05-02T03:35:52.905Z,27.30
2023-05-02T03:36:52.893Z,28.50
2023-05-02T03:37:52.869Z,25.90
2023-05-02T03:38:52.850Z,25.60
2023-05-02T03:39:53.010Z,26.80
2023-05-02T03:40:52.853Z,26.70
2023-05-02T03:41:52.814Z,27.10
2023-05-02T03:42:52.807Z,26.70
2023-05-02T03:43:52.811Z,32.20
2023-05-02T03:44:52.798Z,32.60
2023-05-02T03:45:52.778Z,28.70
2023-05-02T03:46:52.801Z,29.00
2023-05-02T03:47:52.785Z,31.50
2023-05-02T03:48:52.755Z,30.40
2023-05-02T03:49:52.750Z,29.20
2023-05-02T03:50:52.728Z,28.90
2023-05-02T03:51:52.705Z,28.20
2023-05-02T03:52:52.693Z,29.00
2023-05-02T03:53:52.698Z,28.90
2023-05-02T03:54:52.671Z,29.00
2023-05-02T03:55:52.689Z,35.00
2023-05-02T03:56:52.662Z,29.70
2023-05-02T03:57:52.666Z,25.70
2023-05-02T03:58:52.647Z,29.70
2023-05-02T03:59:52.630Z,27.70
2023-05-02T04:00:52.614Z,27.00
2023-05-02T04:01:52.738Z,24.90
2023-05-02T04:02:52.851Z,28.20
2023-05-02T04:03:52.777Z,27.20
2023-05-02T04:04:52.594Z,23.80
2023-05-02T04:05:52.553Z,26.80
2023-05-02T04:06:52.574Z,28.10
2023-05-02T04:07:52.549Z,27.00
2023-05-02T04:08:52.543Z,27.60
2023-05-02T04:09:52.526Z,23.00
2023-05-02T04:10:52.518Z,25.70
2023-05-02T04:11:52.512Z,26.70
2023-05-02T04:12:52.510Z,21.70
2023-05-02T04:13:53.356Z,23.10
2023-05-02T04:14:52.462Z,27.60
2023-05-02T04:15:52.460Z,24.90
2023-05-02T04:16:52.463Z,24.20
2023-05-02T04:17:52.522Z,25.30
2023-05-02T04:18:52.435Z,28.20
2023-05-02T04:19:52.400Z,24.50
2023-05-02T04:20:52.403Z,32.80
2023-05-02T04:21:52.407Z,29.70
2023-05-02T04:22:52.378Z,24.30
2023-05-02T04:23:52.364Z,27.30
2023-05-02T04:24:52.371Z,29.60
2023-05-02T04:25:52.340Z,28.90
2023-05-02T04:26:52.317Z,28.30
2023-05-02T04:27:52.349Z,30.30
2023-05-02T04:28:52.298Z,30.10
2023-05-02T04:29:52.322Z,32.00
2023-05-02T04:30:52.302Z,31.10
2023-05-02T04:31:52.282Z,30.60
2023-05-02T04:32:52.353Z,32.70
2023-05-02T04:33:52.255Z,32.40
2023-05-02T04:34:52.233Z,31.50
2023-05-02T04:35:52.243Z,34.50
2023-05-02T04:36:52.219Z,29.10
2023-05-02T04:37:52.227Z,30.70
2023-05-02T04:38:52.197Z,34.20
2023-05-02T04:39:52.190Z,31.00
2023-05-02T04:40:52.183Z,32.30
2023-05-02T04:41:52.180Z,34.70
2023-05-02T04:42:52.155Z,28.60
2023-05-02T04:43:52.179Z,28.80
2023-05-02T04:44:52.129Z,33.60
2023-05-02T04:45:52.216Z,32.20
2023-05-02T04:46:52.188Z,29.70
2023-05-02T04:47:52.188Z,31.10
2023-05-02T04:48:52.092Z,31.80
2023-05-02T04:49:52.071Z,29.40
2023-05-02T04:50:52.077Z,29.40
2023-05-02T04:51:52.037Z,32.80
2023-05-02T04:52:52.049Z,30.00
2023-05-02T04:53:52.036Z,27.60
2023-05-02T04:54:52.006Z,31.20
2023-05-02T04:55:52.045Z,28.40
2023-05-02T04:56:52.037Z,26.20
2023-05-02T04:57:51.981Z,25.90
2023-05-02T04:58:51.986Z,27.30
2023-05-02T04:59:52.039Z,30.50
2023-05-02T05:00:51.953Z,28.30
2023-05-02T05:01:51.990Z,26.30
2023-05-02T05:02:52.022Z,22.60
2023-05-02T05:03:52.027Z,24.80
2023-05-02T05:04:51.927Z,26.00
2023-05-02T05:05:51.918Z,24.80
2023-05-02T05:06:52.054Z,24.80
2023-05-02T05:07:51.891Z,25.50
2023-05-02T05:08:51.888Z,27.10
2023-05-02T05:09:53.279Z,23.70
2023-05-02T05:10:51.906Z,26.20
2023-05-02T05:11:51.836Z,26.60
2023-05-02T05:12:51.846Z,24.30
2023-05-02T05:13:51.822Z,26.60
2023-05-02T05:14:51.815Z,22.30
2023-05-02T05:15:51.865Z,26.90
2023-05-02T05:16:51.862Z,26.80
2023-05-02T05:17:51.810Z,25.00
2023-05-02T05:18:51.815Z,23.70
2023-05-02T05:19:51.775Z,22.30
2023-05-02T05:20:51.758Z,25.70
2023-05-02T05:21:51.744Z,26.20
2023-05-02T05:22:51.713Z,28.30
2023-05-02T05:23:51.702Z,26.90
2023-05-02T05:24:59.510Z,25.30
2023-05-02T05:25:51.687Z,26.30
2023-05-02T05:26:51.685Z,23.80
2023-05-02T05:27:51.647Z,23.90
2023-05-02T05:28:51.657Z,25.40
2023-05-02T05:29:51.651Z,25.30
2023-05-02T05:30:51.633Z,24.50
2023-05-02T05:31:51.668Z,20.80
2023-05-02T05:32:51.646Z,22.90
2023-05-02T05:33:51.639Z,23.20
2023-05-02T05:34:51.582Z,25.80
2023-05-02T05:35:51.578Z,24.20
2023-05-02T05:36:51.592Z,22.10
2023-05-02T05:37:51.566Z,26.60
2023-05-02T05:38:51.576Z,26.10
2023-05-02T05:39:51.533Z,27.00
2023-05-02T05:40:51.507Z,23.10
2023-05-02T05:41:51.525Z,28.60
2023-05-02T05:42:51.509Z,20.50
2023-05-02T05:43:51.499Z,27.00
2023-05-02T05:44:51.469Z,25.20
2023-05-02T05:45:51.453Z,27.60
2023-05-02T05:46:51.478Z,22.70
2023-05-02T05:47:51.680Z,25.50
2023-05-02T05:48:51.455Z,22.60
2023-05-02T05:49:51.420Z,28.50
2023-05-02T05:50:51.384Z,25.00
2023-05-02T05:51:51.405Z,24.50
2023-05-02T05:52:51.381Z,28.60
2023-05-02T05:53:51.585Z,25.10
2023-05-02T05:54:51.361Z,24.70
2023-05-02T05:55:51.335Z,30.80
2023-05-02T05:56:51.360Z,28.50
2023-05-02T05:57:51.354Z,24.70
2023-05-02T05:58:51.315Z,30.10
2023-05-02T05:59:51.386Z,30.70
2023-05-02T06:00:51.339Z,29.30
2023-05-02T06:01:51.787Z,30.50
2023-05-02T06:02:51.375Z,26.80
2023-05-02T06:03:51.334Z,27.00
2023-05-02T06:04:51.312Z,25.40
2023-05-02T06:05:51.261Z,30.50
2023-05-02T06:06:51.413Z,28.10
2023-05-02T06:07:51.241Z,25.00
2023-05-02T06:08:51.210Z,27.20
2023-05-02T06:09:51.224Z,26.40
2023-05-02T06:10:51.199Z,31.60
2023-05-02T06:11:51.171Z,36.10
2023-05-02T06:12:51.194Z,27.30
2023-05-02T06:13:51.135Z,27.50
2023-05-02T06:14:51.182Z,27.20
2023-05-02T06:15:51.262Z,27.20
2023-05-02T06:16:51.154Z,29.50
2023-05-02T06:17:51.159Z,28.40
2023-05-02T06:18:51.101Z,29.40
2023-05-02T06:19:51.142Z,28.40
2023-05-02T06:20:51.076Z,30.00
2023-05-02T06:21:51.725Z,27.10
2023-05-02T06:22:51.057Z,24.80
2023-05-02T06:23:51.020Z,26.50
2023-05-02T06:24:51.093Z,26.50
2023-05-02T06:25:51.025Z,28.40
2023-05-02T06:26:51.353Z,31.90
2023-05-02T06:27:50.997Z,27.60
2023-05-02T06:28:50.981Z,27.10
2023-05-02T06:29:50.991Z,24.10
2023-05-02T06:30:50.972Z,26.70
2023-05-02T06:31:51.013Z,20.40
2023-05-02T06:32:50.995Z,22.30
2023-05-02T06:33:50.926Z,25.10
2023-05-02T06:34:50.935Z,25.80
2023-05-02T06:35:50.928Z,22.90
2023-05-02T06:36:50.908Z,26.00
2023-05-02T06:37:50.938Z,21.50
2023-05-02T06:38:50.874Z,24.30
2023-05-02T06:39:50.880Z,23.00
2023-05-02T06:40:50.936Z,24.40
2023-05-02T06:41:50.864Z,22.50
2023-05-02T06:42:50.819Z,24.60
2023-05-02T06:43:50.800Z,28.00
2023-05-02T06:44:50.814Z,21.60
2023-05-02T06:45:50.838Z,23.70
2023-05-02T06:46:51.309Z,23.10
2023-05-02T06:47:50.846Z,24.10
2023-05-02T06:48:50.789Z,19.50
2023-05-02T06:49:50.794Z,22.00
2023-05-02T06:50:50.785Z,21.00
2023-05-02T06:51:50.740Z,20.80
2023-05-02T06:52:50.708Z,19.00
2023-05-02T06:53:50.735Z,19.20
2023-05-02T06:54:50.743Z,22.60
2023-05-02T06:55:50.676Z,19.30
2023-05-02T06:56:50.674Z,25.70
2023-05-02T06:57:50.648Z,22.80
2023-05-02T06:58:50.769Z,16.00
2023-05-02T06:59:50.674Z,21.60
2023-05-02T07:00:50.701Z,19.50
2023-05-02T07:01:50.624Z,16.60
2023-05-02T07:02:50.692Z,19.00
2023-05-02T07:03:50.702Z,18.20
2023-05-02T07:04:50.575Z,18.60
2023-05-02T07:05:50.583Z,19.70
2023-05-02T07:06:50.729Z,18.10
2023-05-02T07:07:50.557Z,17.40
2023-05-02T07:08:50.526Z,16.60
2023-05-02T07:09:50.551Z,24.70
2023-05-02T07:10:50.489Z,18.00
2023-05-02T07:11:50.495Z,19.00
2023-05-02T07:12:50.536Z,18.10
2023-05-02T07:13:50.486Z,16.50
2023-05-02T07:14:50.508Z,20.20
2023-05-02T07:15:50.502Z,19.90
2023-05-02T07:16:50.488Z,15.40
2023-05-02T07:17:50.818Z,16.70
2023-05-02T07:18:50.421Z,18.00
2023-05-02T07:19:50.415Z,17.20
2023-05-02T07:20:50.405Z,15.80
2023-05-02T07:21:50.374Z,16.10
2023-05-02T07:22:50.365Z,15.20
2023-05-02T07:23:50.407Z,18.40
2023-05-02T07:24:50.379Z,15.70
2023-05-02T07:25:50.353Z,17.30
2023-05-02T07:26:50.317Z,14.20
2023-05-02T07:27:50.342Z,15.10
2023-05-02T07:28:50.301Z,17.60
2023-05-02T07:29:50.366Z,14.80
2023-05-02T07:30:50.274Z,15.70
2023-05-02T07:31:50.306Z,16.80
2023-05-02T07:32:50.274Z,19.60
2023-05-02T07:33:50.238Z,18.50
2023-05-02T07:34:50.247Z,14.30
2023-05-02T07:35:50.225Z,14.80
2023-05-02T07:36:50.237Z,15.80
2023-05-02T07:37:50.222Z,13.70
2023-05-02T07:38:50.244Z,10.80
2023-05-02T07:39:50.282Z,16.40
2023-05-02T07:40:50.179Z,16.70
2023-05-02T07:41:50.185Z,14.30
2023-05-02T07:42:50.158Z,11.40
2023-05-02T07:43:50.191Z,13.60
2023-05-02T07:44:50.126Z,14.70
2023-05-02T07:45:50.146Z,13.10
2023-05-02T07:46:50.201Z,13.90
2023-05-02T07:47:50.121Z,14.00
2023-05-02T07:48:50.073Z,10.20
2023-05-02T07:49:50.078Z,12.20
2023-05-02T07:50:50.310Z,11.70
2023-05-02T07:51:50.208Z,13.40
2023-05-02T07:52:50.060Z,13.00
2023-05-02T07:53:50.027Z,12.00
2023-05-02T07:54:50.051Z,13.80
2023-05-02T07:55:50.028Z,16.30
2023-05-02T07:56:50.120Z,13.10
2023-05-02T07:57:49.994Z,11.70
2023-05-02T07:58:49.960Z,15.30
2023-05-02T07:59:49.955Z,16.30
2023-05-02T08:00:49.976Z,12.70
2023-05-02T08:01:49.934Z,15.40
2023-05-02T08:02:50.030Z,14.40
2023-05-02T08:03:50.240Z,11.50
2023-05-02T08:04:49.969Z,13.70
2023-05-02T08:05:49.912Z,13.60
2023-05-02T08:06:50.099Z,13.10
2023-05-02T08:07:49.885Z,12.60
2023-05-02T08:08:49.887Z,14.40
2023-05-02T08:09:50.321Z,12.10
2023-05-02T08:10:49.853Z,12.90
2023-05-02T08:11:49.861Z,12.20
2023-05-02T08:12:49.809Z,12.80
2023-05-02T08:13:49.858Z,14.70
2023-05-02T08:14:49.795Z,11.40
2023-05-02T08:15:49.855Z,11.20
2023-05-02T08:16:49.874Z,14.10
2023-05-02T08:17:49.784Z,10.60
2023-05-02T08:18:49.752Z,10.30
2023-05-02T08:19:49.800Z,10.10
2023-05-02T08:20:49.738Z,12.10
2023-05-02T08:21:49.782Z,11.70
2023-05-02T08:22:49.772Z,11.40
2023-05-02T08:23:49.811Z,11.00
2023-05-02T08:24:49.731Z,11.20
2023-05-02T08:25:49.675Z,10.10
2023-05-02T08:26:49.706Z,9.20
2023-05-02T08:27:49.728Z,13.30
2023-05-02T08:28:49.744Z,10.40
2023-05-02T08:29:49.645Z,9.40
2023-05-02T08:30:49.625Z,8.10
2023-05-02T08:31:49.762Z,12.10
2023-05-02T08:32:49.739Z,9.60
2023-05-02T08:33:49.592Z,12.00
2023-05-02T08:34:49.667Z,8.60
2023-05-02T08:35:49.686Z,9.10
2023-05-02T08:36:49.555Z,9.60
2023-05-02T08:37:49.546Z,10.40
2023-05-02T08:38:49.590Z,8.90
2023-05-02T08:39:49.530Z,9.10
2023-05-02T08:40:49.757Z,9.80
2023-05-02T08:41:50.237Z,9.10
2023-05-02T08:42:49.559Z,9.40
2023-05-02T08:43:49.535Z,8.30
2023-05-02T08:44:49.507Z,7.90
2023-05-02T08:45:49.483Z,10.30
2023-05-02T08:46:49.504Z,10.70
2023-05-02T08:47:49.473Z,13.30
2023-05-02T08:48:49.452Z,9.20
2023-05-02T08:49:49.405Z,9.90
2023-05-02T08:50:49.438Z,12.50
2023-05-02T08:51:49.413Z,10.00
2023-05-02T08:52:50.549Z,9.10
2023-05-02T08:53:49.430Z,10.80
2023-05-02T08:54:49.361Z,10.30
2023-05-02T08:55:49.347Z,12.70
2023-05-02T08:56:49.346Z,9.40
2023-05-02T08:57:49.344Z,10.10
2023-05-02T08:58:49.371Z,12.50
2023-05-02T08:59:49.343Z,9.00
2023-05-02T09:00:49.326Z,7.90
2023-05-02T09:01:49.379Z,11.20
2023-05-02T09:02:52.262Z,11.70
2023-05-02T09:03:49.309Z,8.40
2023-05-02T09:04:49.824Z,11.50
2023-05-02T09:05:49.261Z,12.20
2023-05-02T09:06:49.252Z,13.00
2023-05-02T09:07:49.259Z,13.40
2023-05-02T09:08:49.269Z,16.10
2023-05-02T09:09:49.222Z,14.60
2023-05-02T09:10:49.278Z,17.50
2023-05-02T09:11:49.153Z,14.10
2023-05-02T09:12:49.170Z,11.50
2023-05-02T09:13:49.739Z,18.70
2023-05-02T09:14:49.131Z,13.30
2023-05-02T09:15:49.128Z,16.90
2023-05-02T09:16:49.225Z,16.20
2023-05-02T09:17:49.284Z,15.40
2023-05-02T09:18:49.096Z,18.20
2023-05-02T09:19:49.149Z,15.90
2023-05-02T09:20:49.032Z,13.70
2023-05-02T09:21:49.086Z,17.50
2023-05-02T09:22:49.067Z,15.60
2023-05-02T09:23:49.044Z,14.60
2023-05-02T09:24:49.117Z,15.00
2023-05-02T09:25:49.050Z,15.10
2023-05-02T09:26:49.024Z,18.20
2023-05-02T09:27:48.981Z,16.80
2023-05-02T09:28:48.974Z,14.80
2023-05-02T09:29:48.952Z,15.20
2023-05-02T09:30:48.951Z,12.50
2023-05-02T09:31:56.150Z,14.60
2023-05-02T09:32:50.001Z,15.80
2023-05-02T09:33:48.924Z,14.40
2023-05-02T09:34:48.901Z,16.50
2023-05-02T09:35:48.900Z,12.50
2023-05-02T09:36:48.923Z,14.70
2023-05-02T09:37:48.923Z,14.40
2023-05-02T09:38:48.861Z,13.10
2023-05-02T09:39:48.847Z,13.70
2023-05-02T09:40:48.815Z,16.00
2023-05-02T09:41:48.843Z,18.90
2023-05-02T09:42:48.843Z,15.70
2023-05-02T09:43:48.861Z,14.30
2023-05-02T09:44:48.780Z,15.60
2023-05-02T09:45:48.870Z,15.20
2023-05-02T09:46:48.872Z,13.50
2023-05-02T09:47:48.883Z,17.20
2023-05-02T09:48:48.800Z,11.60
2023-05-02T09:49:48.739Z,13.70
2023-05-02T09:50:48.775Z,17.40
2023-05-02T09:51:48.712Z,14.60
2023-05-02T09:52:48.729Z,13.70
2023-05-02T09:53:48.711Z,11.80
2023-05-02T09:54:48.656Z,11.40
2023-05-02T09:55:48.681Z,13.60
2023-05-02T09:56:48.682Z,13.20
2023-05-02T09:57:48.646Z,14.90
2023-05-02T09:58:48.634Z,12.20
2023-05-02T09:59:48.612Z,12.90
2023-05-02T10:00:48.672Z,11.70
2023-05-02T10:01:48.669Z,11.90
2023-05-02T10:02:48.621Z,14.00
2023-05-02T10:03:48.727Z,12.10
2023-05-02T10:04:48.837Z,16.80
2023-05-02T10:05:48.542Z,12.60
2023-05-02T10:06:48.665Z,11.40
2023-05-02T10:07:48.553Z,12.30
2023-05-02T10:08:48.513Z,14.60
2023-05-02T10:09:48.502Z,12.10
2023-05-02T10:10:48.757Z,12.10
2023-05-02T10:11:48.502Z,14.60
2023-05-02T10:12:48.479Z,10.80
2023-05-02T10:13:48.442Z,14.30
2023-05-02T10:14:48.475Z,9.20
2023-05-02T10:15:48.486Z,9.80
2023-05-02T10:16:48.443Z,7.50
2023-05-02T10:17:48.680Z,8.70
2023-05-02T10:18:48.414Z,9.60
2023-05-02T10:19:49.265Z,7.80
2023-05-02T10:20:48.600Z,7.50
2023-05-02T10:21:48.389Z,9.50
2023-05-02T10:22:48.346Z,7.40
2023-05-02T10:23:48.344Z,7.90
2023-05-02T10:24:48.365Z,9.50
2023-05-02T10:25:48.324Z,5.80
2023-05-02T10:26:48.347Z,7.20
2023-05-02T10:27:48.316Z,5.10
2023-05-02T10:28:49.288Z,4.80
2023-05-02T10:29:48.388Z,5.60
2023-05-02T10:30:48.306Z,4.80
2023-05-02T10:31:48.268Z,3.80
2023-05-02T10:32:48.283Z,3.90
2023-05-02T10:33:48.208Z,5.60
2023-05-02T10:34:48.397Z,4.60
2023-05-02T10:35:48.291Z,4.90
2023-05-02T10:36:48.188Z,4.70
2023-05-02T10:37:48.179Z,6.90
2023-05-02T10:38:48.204Z,6.40
2023-05-02T10:39:48.173Z,6.60
2023-05-02T10:40:48.157Z,8.40
2023-05-02T10:41:48.248Z,7.50
2023-05-02T10:42:48.125Z,6.30
2023-05-02T10:43:48.103Z,7.50
2023-05-02T10:44:48.111Z,5.80
2023-05-02T10:45:48.142Z,6.70
2023-05-02T10:46:48.097Z,8.10
2023-05-02T10:47:48.082Z,5.40
2023-05-02T10:48:48.033Z,3.90
2023-05-02T10:49:48.177Z,5.30
2023-05-02T10:50:48.040Z,7.40
2023-05-02T10:51:48.064Z,8.60
2023-05-02T10:52:48.001Z,7.80
2023-05-02T10:53:47.976Z,6.90
2023-05-02T10:54:47.985Z,6.60
2023-05-02T10:55:48.062Z,6.40
2023-05-02T10:56:47.976Z,7.50
2023-05-02T10:57:47.953Z,6.60
2023-05-02T10:58:47.963Z,6.30
2023-05-02T10:59:47.954Z,7.90
2023-05-02T11:00:47.955Z,9.80
2023-05-02T11:01:48.756Z,7.50
2023-05-02T11:02:48.075Z,8.30
2023-05-02T11:03:47.896Z,9.40
2023-05-02T11:04:47.903Z,7.60
2023-05-02T11:05:47.867Z,8.00
2023-05-02T11:06:47.936Z,12.10
2023-05-02T11:07:47.841Z,10.40
2023-05-02T11:08:47.856Z,8.20
2023-05-02T11:09:47.849Z,10.00
2023-05-02T11:10:47.856Z,7.70
2023-05-02T11:11:47.806Z,9.70
2023-05-02T11:12:47.928Z,9.30
2023-05-02T11:13:47.788Z,7.70
2023-05-02T11:14:47.917Z,10.50
2023-05-02T11:15:47.746Z,7.90
2023-05-02T11:16:47.791Z,9.20
2023-05-02T11:17:48.823Z,10.00
2023-05-02T11:18:47.749Z,8.50
2023-05-02T11:19:47.722Z,8.70
2023-05-02T11:20:47.688Z,9.60
2023-05-02T11:21:47.673Z,8.10
2023-05-02T11:22:47.789Z,9.50
2023-05-02T11:23:47.713Z,11.60
2023-05-02T11:24:47.647Z,7.90
2023-05-02T11:25:47.633Z,8.30
2023-05-02T11:26:47.662Z,8.70
2023-05-02T11:27:47.697Z,8.90
2023-05-02T11:28:47.749Z,6.80
2023-05-02T11:29:47.612Z,7.20
2023-05-02T11:30:47.574Z,8.70
2023-05-02T11:31:47.587Z,8.50
2023-05-02T11:32:47.562Z,10.20
2023-05-02T11:33:47.556Z,7.50
2023-05-02T11:34:49.259Z,7.50
2023-05-02T11:35:47.510Z,7.50
2023-05-02T11:36:47.556Z,7.80
2023-05-02T11:37:47.520Z,7.40
2023-05-02T11:38:47.519Z,6.00
2023-05-02T11:39:47.480Z,7.30
2023-05-02T11:40:47.454Z,6.30
2023-05-02T11:41:47.460Z,6.80
2023-05-02T11:42:47.463Z,7.40
2023-05-02T11:43:47.436Z,6.00
2023-05-02T11:44:47.432Z,7.90
2023-05-02T11:45:47.409Z,11.50
2023-05-02T11:46:47.443Z,8.20
2023-05-02T11:47:47.485Z,8.50
2023-05-02T11:48:47.389Z,9.90
2023-05-02T11:49:47.353Z,9.20
2023-05-02T11:50:50.462Z,8.60
2023-05-02T11:51:47.330Z,8.60
2023-05-02T11:52:47.338Z,7.10
2023-05-02T11:53:47.343Z,5.40
2023-05-02T11:54:47.305Z,7.10
2023-05-02T11:55:47.297Z,8.70
2023-05-02T11:56:47.347Z,7.80
2023-05-02T11:57:47.275Z,7.40
2023-05-02T11:58:47.274Z,8.70
2023-05-02T11:59:47.240Z,8.40
2023-05-02T12:00:47.217Z,8.40
2023-05-02T12:01:47.262Z,6.80
2023-05-02T12:02:47.427Z,5.60
2023-05-02T12:03:47.338Z,8.30
2023-05-02T12:04:47.210Z,6.30
2023-05-02T12:05:47.217Z,7.80
2023-05-02T12:06:47.276Z,6.70
2023-05-02T12:07:47.730Z,8.00
2023-05-02T12:08:47.153Z,6.70
2023-05-02T12:09:47.142Z,6.90
2023-05-02T12:10:47.187Z,8.50
2023-05-02T12:11:47.165Z,14.50
2023-05-02T12:12:47.173Z,7.00
2023-05-02T12:13:47.130Z,4.70
2023-05-02T12:14:47.068Z,7.90
2023-05-02T12:15:47.121Z,6.40
2023-05-02T12:16:47.106Z,6.20
2023-05-02T12:17:47.097Z,5.70
2023-05-02T12:18:47.035Z,6.10
2023-05-02T12:19:47.017Z,7.40
2023-05-02T12:20:47.021Z,5.90
2023-05-02T12:21:47.028Z,6.60
2023-05-02T12:22:47.017Z,6.70
2023-05-02T12:23:46.998Z,7.00
2023-05-02T12:24:46.949Z,8.10
2023-05-02T12:25:46.988Z,6.00
2023-05-02T12:26:46.942Z,6.90
2023-05-02T12:27:47.756Z,5.20
2023-05-02T12:28:46.928Z,5.80
2023-05-02T12:29:46.933Z,6.70
2023-05-02T12:30:46.892Z,4.70
2023-05-02T12:31:46.924Z,6.00
2023-05-02T12:32:46.923Z,7.20
2023-05-02T12:33:46.873Z,6.10
2023-05-02T12:34:46.900Z,5.20
2023-05-02T12:35:46.884Z,5.90
2023-05-02T12:36:46.843Z,7.00
2023-05-02T12:37:47.429Z,5.10
2023-05-02T12:38:46.812Z,5.50
2023-05-02T12:39:46.786Z,4.50
2023-05-02T12:40:46.819Z,5.80
2023-05-02T12:41:46.959Z,4.80
2023-05-02T12:42:46.778Z,6.30
2023-05-02T12:43:46.797Z,9.00
2023-05-02T12:44:46.796Z,7.30
2023-05-02T12:45:46.729Z,8.00
2023-05-02T12:46:46.770Z,4.80
2023-05-02T12:47:46.764Z,8.20
2023-05-02T12:48:46.894Z,4.90
2023-05-02T12:49:46.692Z,6.40
2023-05-02T12:50:46.693Z,7.10
2023-05-02T12:51:46.641Z,5.40
2023-05-02T12:52:46.651Z,7.80
2023-05-02T12:53:46.630Z,5.10
2023-05-02T12:54:46.785Z,5.60
2023-05-02T12:55:46.635Z,6.80
2023-05-02T12:56:46.596Z,7.30
2023-05-02T12:57:46.604Z,5.50
2023-05-02T12:58:46.580Z,6.50
2023-05-02T12:59:46.629Z,6.10
2023-05-02T13:00:47.948Z,4.80
2023-05-02T13:01:46.564Z,5.90